sensor_id;sensor_type;location;lat;lon;timestamp;temperature;humidity
18153;DHT22;9202;51.578;7.734;2022-07-29T00:02:49;19.20;99.90
18153;DHT22;9202;51.578;7.734;2022-07-29T00:04:52;19.20;99.90
18153;DHT22;9202;51.578;7.734;2022-07-29T00:06:56;19.20;99.90
18153;DHT22;9202;51.578;7.734;2022-07-29T00:08:59;19.20;99.90
18153;DHT22;9202;51.578;7.734;2022-07-29T00:11:03;19.20;99.90
18153;DHT22;9202;51.578;7.734;2022-07-29T00:13:06;19.10;99.90
18153;DHT22;9202;51.578;7.734;2022-07-29T00:15:10;19.10;99.90
18153;DHT22;9202;51.578;7.734;2022-07-29T00:17:14;19.00;99.90
18153;DHT22;9202;51.578;7.734;2022-07-29T00:19:19;19.00;99.90
18153;DHT22;9202;51.578;7.734;2022-07-29T00:21:23;19.00;99.90
18153;DHT22;9202;51.578;7.734;2022-07-29T00:23:27;19.00;99.90
18153;DHT22;9202;51.578;7.734;2022-07-29T00:25:30;18.90;99.90
18153;DHT22;9202;51.578;7.734;2022-07-29T00:27:36;18.90;99.90
18153;DHT22;9202;51.578;7.734;2022-07-29T00:29:39;18.90;99.90
18153;DHT22;9202;51.578;7.734;2022-07-29T00:31:43;18.80;99.90
18153;DHT22;9202;51.578;7.734;2022-07-29T00:33:47;18.90;99.90
18153;DHT22;9202;51.578;7.734;2022-07-29T00:35:51;18.80;99.90
18153;DHT22;9202;51.578;7.734;2022-07-29T00:37:55;18.70;99.90
18153;DHT22;9202;51.578;7.734;2022-07-29T00:39:59;18.80;99.90
18153;DHT22;9202;51.578;7.734;2022-07-29T00:42:04;18.70;99.90
18153;DHT22;9202;51.578;7.734;2022-07-29T00:44:07;18.70;99.90
18153;DHT22;9202;51.578;7.734;2022-07-29T00:46:12;18.70;99.90
18153;DHT22;9202;51.578;7.734;2022-07-29T00:48:16;18.70;99.90
18153;DHT22;9202;51.578;7.734;2022-07-29T00:50:20;18.70;99.90
18153;DHT22;9202;51.578;7.734;2022-07-29T00:52:23;18.70;99.90
18153;DHT22;9202;51.578;7.734;2022-07-29T00:54:27;18.70;99.90
18153;DHT22;9202;51.578;7.734;2022-07-29T00:56:32;18.70;99.90
18153;DHT22;9202;51.578;7.734;2022-07-29T00:58:36;18.60;99.90
18153;DHT22;9202;51.578;7.734;2022-07-29T01:00:39;18.70;99.90
18153;DHT22;9202;51.578;7.734;2022-07-29T01:02:44;18.60;99.90
18153;DHT22;9202;51.578;7.734;2022-07-29T01:04:48;18.60;99.90
18153;DHT22;9202;51.578;7.734;2022-07-29T01:06:52;18.60;99.90
18153;DHT22;9202;51.578;7.734;2022-07-29T01:08:56;18.60;99.90
18153;DHT22;9202;51.578;7.734;2022-07-29T01:11:02;18.60;99.90
18153;DHT22;9202;51.578;7.734;2022-07-29T01:13:06;18.50;99.90
18153;DHT22;9202;51.578;7.734;2022-07-29T01:15:11;18.40;99.90
18153;DHT22;9202;51.578;7.734;2022-07-29T01:17:19;18.10;99.90
18153;DHT22;9202;51.578;7.734;2022-07-29T01:19:47;18.10;99.90
18153;DHT22;9202;51.578;7.734;2022-07-29T01:21:48;18.00;99.90
18153;DHT22;9202;51.578;7.734;2022-07-29T01:24:11;17.90;99.90
18153;DHT22;9202;51.578;7.734;2022-07-29T01:26:33;17.90;99.90
18153;DHT22;9202;51.578;7.734;2022-07-29T01:28:55;18.00;99.90
18153;DHT22;9202;51.578;7.734;2022-07-29T01:31:01;18.00;99.90
18153;DHT22;9202;51.578;7.734;2022-07-29T01:33:09;18.00;99.90
18153;DHT22;9202;51.578;7.734;2022-07-29T01:35:18;18.10;99.90
18153;DHT22;9202;51.578;7.734;2022-07-29T01:37:26;18.10;99.90
18153;DHT22;9202;51.578;7.734;2022-07-29T01:39:33;18.10;99.90
18153;DHT22;9202;51.578;7.734;2022-07-29T01:43:59;17.90;99.90
18153;DHT22;9202;51.578;7.734;2022-07-29T01:46:05;17.80;99.90
18153;DHT22;9202;51.578;7.734;2022-07-29T01:48:15;17.80;99.90
18153;DHT22;9202;51.578;7.734;2022-07-29T01:50:19;17.80;99.90
18153;DHT22;9202;51.578;7.734;2022-07-29T01:52:27;17.80;99.90
18153;DHT22;9202;51.578;7.734;2022-07-29T01:54:37;17.90;99.90
18153;DHT22;9202;51.578;7.734;2022-07-29T01:59:04;18.00;99.90
18153;DHT22;9202;51.578;7.734;2022-07-29T02:03:26;18.10;99.90
18153;DHT22;9202;51.578;7.734;2022-07-29T02:05:31;18.10;99.90
18153;DHT22;9202;51.578;7.734;2022-07-29T02:07:37;18.10;99.90
18153;DHT22;9202;51.578;7.734;2022-07-29T02:09:42;18.10;99.90
18153;DHT22;9202;51.578;7.734;2022-07-29T02:14:07;18.00;99.90
18153;DHT22;9202;51.578;7.734;2022-07-29T02:16:13;17.90;99.90
18153;DHT22;9202;51.578;7.734;2022-07-29T02:18:19;17.90;99.90
18153;DHT22;9202;51.578;7.734;2022-07-29T02:20:25;17.90;99.90
18153;DHT22;9202;51.578;7.734;2022-07-29T02:22:31;17.90;99.90
18153;DHT22;9202;51.578;7.734;2022-07-29T02:24:37;17.80;99.90
18153;DHT22;9202;51.578;7.734;2022-07-29T02:26:43;17.70;99.90
18153;DHT22;9202;51.578;7.734;2022-07-29T02:28:48;17.70;99.90
18153;DHT22;9202;51.578;7.734;2022-07-29T02:30:54;17.70;99.90
18153;DHT22;9202;51.578;7.734;2022-07-29T02:32:59;17.70;99.90
18153;DHT22;9202;51.578;7.734;2022-07-29T02:35:05;17.70;99.90
18153;DHT22;9202;51.578;7.734;2022-07-29T02:37:10;17.70;99.90
18153;DHT22;9202;51.578;7.734;2022-07-29T02:39:15;17.60;99.90
18153;DHT22;9202;51.578;7.734;2022-07-29T02:41:22;17.60;99.90
18153;DHT22;9202;51.578;7.734;2022-07-29T02:43:26;17.60;99.90
18153;DHT22;9202;51.578;7.734;2022-07-29T02:45:30;17.60;99.90
18153;DHT22;9202;51.578;7.734;2022-07-29T02:47:38;17.60;99.90
18153;DHT22;9202;51.578;7.734;2022-07-29T02:49:47;17.50;99.90
18153;DHT22;9202;51.578;7.734;2022-07-29T02:51:56;17.50;99.90
18153;DHT22;9202;51.578;7.734;2022-07-29T02:54:02;17.40;99.90
18153;DHT22;9202;51.578;7.734;2022-07-29T02:56:12;17.40;99.90
18153;DHT22;9202;51.578;7.734;2022-07-29T02:58:19;17.40;99.90
18153;DHT22;9202;51.578;7.734;2022-07-29T03:00:24;17.30;99.90
18153;DHT22;9202;51.578;7.734;2022-07-29T03:02:32;17.20;99.90
18153;DHT22;9202;51.578;7.734;2022-07-29T03:04:38;17.10;99.90
18153;DHT22;9202;51.578;7.734;2022-07-29T03:06:43;17.10;99.90
18153;DHT22;9202;51.578;7.734;2022-07-29T03:08:48;17.20;99.90
18153;DHT22;9202;51.578;7.734;2022-07-29T03:10:52;17.20;99.90
18153;DHT22;9202;51.578;7.734;2022-07-29T03:12:57;17.30;99.90
18153;DHT22;9202;51.578;7.734;2022-07-29T03:15:02;17.20;99.90
18153;DHT22;9202;51.578;7.734;2022-07-29T03:17:05;17.20;99.90
18153;DHT22;9202;51.578;7.734;2022-07-29T03:19:10;17.20;99.90
18153;DHT22;9202;51.578;7.734;2022-07-29T03:21:14;17.20;99.90
18153;DHT22;9202;51.578;7.734;2022-07-29T03:23:20;17.20;99.90
18153;DHT22;9202;51.578;7.734;2022-07-29T03:25:25;17.10;99.90
18153;DHT22;9202;51.578;7.734;2022-07-29T03:27:29;17.10;99.90
18153;DHT22;9202;51.578;7.734;2022-07-29T03:29:33;17.00;99.90
18153;DHT22;9202;51.578;7.734;2022-07-29T03:31:37;16.90;99.90
18153;DHT22;9202;51.578;7.734;2022-07-29T03:33:42;16.90;99.90
18153;DHT22;9202;51.578;7.734;2022-07-29T03:35:46;16.90;99.90
18153;DHT22;9202;51.578;7.734;2022-07-29T03:37:49;16.90;99.90
18153;DHT22;9202;51.578;7.734;2022-07-29T03:39:55;16.90;99.90
18153;DHT22;9202;51.578;7.734;2022-07-29T03:42:00;17.00;99.90
18153;DHT22;9202;51.578;7.734;2022-07-29T03:44:04;17.00;99.90
18153;DHT22;9202;51.578;7.734;2022-07-29T03:46:10;17.00;99.90
18153;DHT22;9202;51.578;7.734;2022-07-29T03:50:34;16.90;99.90
18153;DHT22;9202;51.578;7.734;2022-07-29T03:52:38;16.90;99.90
18153;DHT22;9202;51.578;7.734;2022-07-29T03:54:42;16.90;99.90
18153;DHT22;9202;51.578;7.734;2022-07-29T03:56:46;17.00;99.90
18153;DHT22;9202;51.578;7.734;2022-07-29T03:58:52;17.00;99.90
18153;DHT22;9202;51.578;7.734;2022-07-29T04:00:56;17.10;99.90
18153;DHT22;9202;51.578;7.734;2022-07-29T04:03:00;17.00;99.90
18153;DHT22;9202;51.578;7.734;2022-07-29T04:05:05;17.10;99.90
18153;DHT22;9202;51.578;7.734;2022-07-29T04:07:13;17.10;99.90
18153;DHT22;9202;51.578;7.734;2022-07-29T04:09:17;17.10;99.90
18153;DHT22;9202;51.578;7.734;2022-07-29T04:11:21;17.20;99.90
18153;DHT22;9202;51.578;7.734;2022-07-29T04:13:24;17.20;99.90
18153;DHT22;9202;51.578;7.734;2022-07-29T04:15:28;17.20;99.90
18153;DHT22;9202;51.578;7.734;2022-07-29T04:17:34;17.10;99.90
18153;DHT22;9202;51.578;7.734;2022-07-29T04:19:37;17.00;99.90
18153;DHT22;9202;51.578;7.734;2022-07-29T04:21:41;16.90;99.90
18153;DHT22;9202;51.578;7.734;2022-07-29T04:23:46;16.80;99.90
18153;DHT22;9202;51.578;7.734;2022-07-29T04:25:54;16.70;99.90
18153;DHT22;9202;51.578;7.734;2022-07-29T04:27:57;16.70;99.90
18153;DHT22;9202;51.578;7.734;2022-07-29T04:30:05;16.60;99.90
18153;DHT22;9202;51.578;7.734;2022-07-29T04:32:09;16.60;99.90
18153;DHT22;9202;51.578;7.734;2022-07-29T04:34:13;16.60;99.90
18153;DHT22;9202;51.578;7.734;2022-07-29T04:36:17;16.60;99.90
18153;DHT22;9202;51.578;7.734;2022-07-29T04:38:22;16.60;99.90
18153;DHT22;9202;51.578;7.734;2022-07-29T04:40:26;16.60;99.90
18153;DHT22;9202;51.578;7.734;2022-07-29T04:42:30;16.60;99.90
18153;DHT22;9202;51.578;7.734;2022-07-29T04:44:34;16.70;99.90
18153;DHT22;9202;51.578;7.734;2022-07-29T04:46:39;16.70;99.90
18153;DHT22;9202;51.578;7.734;2022-07-29T04:48:45;16.80;99.90
18153;DHT22;9202;51.578;7.734;2022-07-29T04:50:49;16.80;99.90
18153;DHT22;9202;51.578;7.734;2022-07-29T04:52:52;16.90;99.90
18153;DHT22;9202;51.578;7.734;2022-07-29T04:54:56;17.00;99.90
18153;DHT22;9202;51.578;7.734;2022-07-29T04:56:59;17.00;99.90
18153;DHT22;9202;51.578;7.734;2022-07-29T04:59:03;17.00;99.90
18153;DHT22;9202;51.578;7.734;2022-07-29T05:01:07;17.00;99.90
18153;DHT22;9202;51.578;7.734;2022-07-29T05:03:10;17.00;99.90
18153;DHT22;9202;51.578;7.734;2022-07-29T05:05:14;16.90;99.90
18153;DHT22;9202;51.578;7.734;2022-07-29T05:07:18;16.90;99.90
18153;DHT22;9202;51.578;7.734;2022-07-29T05:09:21;16.80;99.90
18153;DHT22;9202;51.578;7.734;2022-07-29T05:11:25;16.80;99.90
18153;DHT22;9202;51.578;7.734;2022-07-29T05:13:30;16.70;99.90
18153;DHT22;9202;51.578;7.734;2022-07-29T05:15:36;16.60;99.90
18153;DHT22;9202;51.578;7.734;2022-07-29T05:17:40;16.60;99.90
18153;DHT22;9202;51.578;7.734;2022-07-29T05:19:44;16.60;99.90
18153;DHT22;9202;51.578;7.734;2022-07-29T05:21:47;16.50;99.90
18153;DHT22;9202;51.578;7.734;2022-07-29T05:23:51;16.60;99.90
18153;DHT22;9202;51.578;7.734;2022-07-29T05:25:55;16.60;99.90
18153;DHT22;9202;51.578;7.734;2022-07-29T05:27:58;16.70;99.90
18153;DHT22;9202;51.578;7.734;2022-07-29T05:30:02;16.70;99.90
18153;DHT22;9202;51.578;7.734;2022-07-29T05:32:06;16.70;99.90
18153;DHT22;9202;51.578;7.734;2022-07-29T05:34:09;16.80;99.90
18153;DHT22;9202;51.578;7.734;2022-07-29T05:36:13;16.90;99.90
18153;DHT22;9202;51.578;7.734;2022-07-29T05:38:17;16.90;99.90
18153;DHT22;9202;51.578;7.734;2022-07-29T05:40:20;16.90;99.90
18153;DHT22;9202;51.578;7.734;2022-07-29T05:42:24;16.90;99.90
18153;DHT22;9202;51.578;7.734;2022-07-29T05:44:28;17.00;99.90
18153;DHT22;9202;51.578;7.734;2022-07-29T05:46:32;16.90;99.90
18153;DHT22;9202;51.578;7.734;2022-07-29T05:48:35;16.90;99.90
18153;DHT22;9202;51.578;7.734;2022-07-29T05:50:39;16.90;99.90
18153;DHT22;9202;51.578;7.734;2022-07-29T05:52:46;16.90;99.90
18153;DHT22;9202;51.578;7.734;2022-07-29T05:54:51;17.00;99.90
18153;DHT22;9202;51.578;7.734;2022-07-29T05:56:55;16.90;99.90
18153;DHT22;9202;51.578;7.734;2022-07-29T05:58:58;16.90;99.90
18153;DHT22;9202;51.578;7.734;2022-07-29T06:01:02;17.00;99.90
18153;DHT22;9202;51.578;7.734;2022-07-29T06:03:06;17.00;99.90
18153;DHT22;9202;51.578;7.734;2022-07-29T06:05:10;17.10;99.90
18153;DHT22;9202;51.578;7.734;2022-07-29T06:07:15;17.10;99.90
18153;DHT22;9202;51.578;7.734;2022-07-29T06:09:19;17.10;99.90
18153;DHT22;9202;51.578;7.734;2022-07-29T06:11:23;17.20;99.90
18153;DHT22;9202;51.578;7.734;2022-07-29T06:13:26;17.10;99.90
18153;DHT22;9202;51.578;7.734;2022-07-29T06:15:30;17.20;99.90
18153;DHT22;9202;51.578;7.734;2022-07-29T06:17:34;17.20;99.90
18153;DHT22;9202;51.578;7.734;2022-07-29T06:19:38;17.30;99.90
18153;DHT22;9202;51.578;7.734;2022-07-29T06:21:42;17.30;99.90
18153;DHT22;9202;51.578;7.734;2022-07-29T06:26:05;17.40;99.90
18153;DHT22;9202;51.578;7.734;2022-07-29T06:28:09;17.50;99.90
18153;DHT22;9202;51.578;7.734;2022-07-29T06:30:13;17.50;99.90
18153;DHT22;9202;51.578;7.734;2022-07-29T06:32:17;17.60;99.90
18153;DHT22;9202;51.578;7.734;2022-07-29T06:34:23;17.50;99.90
18153;DHT22;9202;51.578;7.734;2022-07-29T06:36:27;17.50;99.90
18153;DHT22;9202;51.578;7.734;2022-07-29T06:38:31;17.60;99.90
18153;DHT22;9202;51.578;7.734;2022-07-29T06:40:37;17.70;99.90
18153;DHT22;9202;51.578;7.734;2022-07-29T06:43:00;17.70;99.90
18153;DHT22;9202;51.578;7.734;2022-07-29T06:45:05;17.80;99.90
18153;DHT22;9202;51.578;7.734;2022-07-29T06:47:10;17.90;99.90
18153;DHT22;9202;51.578;7.734;2022-07-29T06:49:14;18.00;99.90
18153;DHT22;9202;51.578;7.734;2022-07-29T06:51:18;18.20;99.90
18153;DHT22;9202;51.578;7.734;2022-07-29T06:53:24;18.20;99.90
18153;DHT22;9202;51.578;7.734;2022-07-29T06:55:29;18.30;99.90
18153;DHT22;9202;51.578;7.734;2022-07-29T06:57:33;18.30;99.90
18153;DHT22;9202;51.578;7.734;2022-07-29T06:59:36;18.30;99.90
18153;DHT22;9202;51.578;7.734;2022-07-29T07:01:41;18.50;99.90
18153;DHT22;9202;51.578;7.734;2022-07-29T07:03:45;18.50;99.90
18153;DHT22;9202;51.578;7.734;2022-07-29T07:05:49;18.60;99.90
18153;DHT22;9202;51.578;7.734;2022-07-29T07:07:52;18.50;99.90
18153;DHT22;9202;51.578;7.734;2022-07-29T07:09:56;18.60;99.90
18153;DHT22;9202;51.578;7.734;2022-07-29T07:12:00;18.60;99.90
18153;DHT22;9202;51.578;7.734;2022-07-29T07:14:03;18.60;99.90
18153;DHT22;9202;51.578;7.734;2022-07-29T07:16:07;18.60;99.90
18153;DHT22;9202;51.578;7.734;2022-07-29T07:18:11;18.70;99.90
18153;DHT22;9202;51.578;7.734;2022-07-29T07:22:30;18.70;99.90
18153;DHT22;9202;51.578;7.734;2022-07-29T07:24:36;18.70;99.90
18153;DHT22;9202;51.578;7.734;2022-07-29T07:26:39;18.90;99.90
18153;DHT22;9202;51.578;7.734;2022-07-29T07:28:43;18.90;99.90
18153;DHT22;9202;51.578;7.734;2022-07-29T07:30:46;19.00;99.90
18153;DHT22;9202;51.578;7.734;2022-07-29T07:32:50;19.20;99.90
18153;DHT22;9202;51.578;7.734;2022-07-29T07:34:54;19.30;99.90
18153;DHT22;9202;51.578;7.734;2022-07-29T07:36:57;19.40;99.90
18153;DHT22;9202;51.578;7.734;2022-07-29T07:39:01;19.40;99.90
18153;DHT22;9202;51.578;7.734;2022-07-29T07:41:05;19.40;99.90
18153;DHT22;9202;51.578;7.734;2022-07-29T07:43:09;19.60;99.90
18153;DHT22;9202;51.578;7.734;2022-07-29T07:45:13;19.60;99.90
18153;DHT22;9202;51.578;7.734;2022-07-29T07:47:18;19.60;99.90
18153;DHT22;9202;51.578;7.734;2022-07-29T07:49:24;19.70;99.90
18153;DHT22;9202;51.578;7.734;2022-07-29T07:51:28;19.80;99.90
18153;DHT22;9202;51.578;7.734;2022-07-29T07:53:31;19.90;99.90
18153;DHT22;9202;51.578;7.734;2022-07-29T07:55:39;20.00;99.90
18153;DHT22;9202;51.578;7.734;2022-07-29T07:57:45;20.10;99.90
18153;DHT22;9202;51.578;7.734;2022-07-29T07:59:48;20.20;99.90
18153;DHT22;9202;51.578;7.734;2022-07-29T08:01:52;20.40;99.90
18153;DHT22;9202;51.578;7.734;2022-07-29T08:03:57;20.40;99.90
18153;DHT22;9202;51.578;7.734;2022-07-29T08:06:01;20.60;99.90
18153;DHT22;9202;51.578;7.734;2022-07-29T08:08:05;20.90;99.90
18153;DHT22;9202;51.578;7.734;2022-07-29T08:10:09;21.20;99.90
18153;DHT22;9202;51.578;7.734;2022-07-29T08:12:13;21.50;99.90
18153;DHT22;9202;51.578;7.734;2022-07-29T08:14:16;21.50;99.90
18153;DHT22;9202;51.578;7.734;2022-07-29T08:16:21;21.60;99.90
18153;DHT22;9202;51.578;7.734;2022-07-29T08:18:25;21.50;99.90
18153;DHT22;9202;51.578;7.734;2022-07-29T08:22:45;21.40;99.90
18153;DHT22;9202;51.578;7.734;2022-07-29T08:24:49;21.40;99.90
18153;DHT22;9202;51.578;7.734;2022-07-29T08:26:58;21.40;99.90
18153;DHT22;9202;51.578;7.734;2022-07-29T08:29:01;21.30;99.90
18153;DHT22;9202;51.578;7.734;2022-07-29T08:31:05;21.30;99.90
18153;DHT22;9202;51.578;7.734;2022-07-29T08:33:09;21.40;99.90
18153;DHT22;9202;51.578;7.734;2022-07-29T08:35:12;21.40;99.90
18153;DHT22;9202;51.578;7.734;2022-07-29T08:37:16;21.40;99.90
18153;DHT22;9202;51.578;7.734;2022-07-29T08:39:20;21.30;99.90
18153;DHT22;9202;51.578;7.734;2022-07-29T08:41:24;21.30;99.90
18153;DHT22;9202;51.578;7.734;2022-07-29T08:43:28;21.40;99.90
18153;DHT22;9202;51.578;7.734;2022-07-29T08:45:41;21.40;99.90
18153;DHT22;9202;51.578;7.734;2022-07-29T08:47:47;21.60;99.90
18153;DHT22;9202;51.578;7.734;2022-07-29T08:49:50;21.80;99.90
18153;DHT22;9202;51.578;7.734;2022-07-29T08:51:54;22.10;99.90
18153;DHT22;9202;51.578;7.734;2022-07-29T08:53:59;22.30;99.90
18153;DHT22;9202;51.578;7.734;2022-07-29T08:56:04;22.30;99.90
18153;DHT22;9202;51.578;7.734;2022-07-29T08:58:08;22.60;99.90
18153;DHT22;9202;51.578;7.734;2022-07-29T09:00:14;22.80;99.90
18153;DHT22;9202;51.578;7.734;2022-07-29T09:02:21;22.90;99.90
18153;DHT22;9202;51.578;7.734;2022-07-29T09:04:29;22.80;99.90
18153;DHT22;9202;51.578;7.734;2022-07-29T09:06:34;22.70;99.90
18153;DHT22;9202;51.578;7.734;2022-07-29T09:08:40;22.80;99.90
18153;DHT22;9202;51.578;7.734;2022-07-29T09:10:44;23.20;99.90
18153;DHT22;9202;51.578;7.734;2022-07-29T09:12:48;23.30;99.90
18153;DHT22;9202;51.578;7.734;2022-07-29T09:14:52;23.50;99.90
18153;DHT22;9202;51.578;7.734;2022-07-29T09:16:56;23.60;99.90
18153;DHT22;9202;51.578;7.734;2022-07-29T09:19:01;23.70;99.90
18153;DHT22;9202;51.578;7.734;2022-07-29T09:21:05;23.80;99.90
18153;DHT22;9202;51.578;7.734;2022-07-29T09:23:27;24.00;99.90
18153;DHT22;9202;51.578;7.734;2022-07-29T09:25:34;24.20;99.90
18153;DHT22;9202;51.578;7.734;2022-07-29T09:27:38;24.30;99.90
18153;DHT22;9202;51.578;7.734;2022-07-29T09:29:41;24.30;99.90
18153;DHT22;9202;51.578;7.734;2022-07-29T09:31:47;24.50;99.90
18153;DHT22;9202;51.578;7.734;2022-07-29T09:33:53;24.70;99.90
18153;DHT22;9202;51.578;7.734;2022-07-29T09:36:03;25.10;99.90
18153;DHT22;9202;51.578;7.734;2022-07-29T09:38:11;25.60;99.90
18153;DHT22;9202;51.578;7.734;2022-07-29T09:40:17;25.70;99.90
18153;DHT22;9202;51.578;7.734;2022-07-29T09:42:29;26.00;99.90
18153;DHT22;9202;51.578;7.734;2022-07-29T09:44:43;26.20;99.90
18153;DHT22;9202;51.578;7.734;2022-07-29T09:46:58;26.00;99.90
18153;DHT22;9202;51.578;7.734;2022-07-29T09:49:08;25.90;99.90
18153;DHT22;9202;51.578;7.734;2022-07-29T09:51:19;25.60;99.90
18153;DHT22;9202;51.578;7.734;2022-07-29T09:53:32;25.20;99.90
18153;DHT22;9202;51.578;7.734;2022-07-29T09:58:16;25.30;99.90
18153;DHT22;9202;51.578;7.734;2022-07-29T10:00:20;25.30;99.90
18153;DHT22;9202;51.578;7.734;2022-07-29T10:02:29;25.20;99.90
18153;DHT22;9202;51.578;7.734;2022-07-29T10:04:39;25.20;99.90
18153;DHT22;9202;51.578;7.734;2022-07-29T10:07:06;25.20;99.90
18153;DHT22;9202;51.578;7.734;2022-07-29T10:09:15;25.20;99.90
18153;DHT22;9202;51.578;7.734;2022-07-29T10:11:22;25.20;99.90
18153;DHT22;9202;51.578;7.734;2022-07-29T10:13:26;25.20;99.90
18153;DHT22;9202;51.578;7.734;2022-07-29T10:15:31;25.40;99.90
18153;DHT22;9202;51.578;7.734;2022-07-29T10:17:35;25.30;99.90
18153;DHT22;9202;51.578;7.734;2022-07-29T10:19:40;25.10;99.90
18153;DHT22;9202;51.578;7.734;2022-07-29T10:21:45;25.00;99.90
18153;DHT22;9202;51.578;7.734;2022-07-29T10:23:49;25.00;99.90
18153;DHT22;9202;51.578;7.734;2022-07-29T10:25:53;24.90;99.90
18153;DHT22;9202;51.578;7.734;2022-07-29T10:27:57;24.70;99.90
18153;DHT22;9202;51.578;7.734;2022-07-29T10:30:00;24.60;99.90
18153;DHT22;9202;51.578;7.734;2022-07-29T10:32:19;24.70;99.90
18153;DHT22;9202;51.578;7.734;2022-07-29T10:34:27;24.90;99.90
18153;DHT22;9202;51.578;7.734;2022-07-29T10:36:40;25.00;99.90
18153;DHT22;9202;51.578;7.734;2022-07-29T10:38:50;24.90;99.90
18153;DHT22;9202;51.578;7.734;2022-07-29T10:41:00;24.90;99.90
18153;DHT22;9202;51.578;7.734;2022-07-29T10:43:24;24.70;99.90
18153;DHT22;9202;51.578;7.734;2022-07-29T10:45:30;24.50;99.90
18153;DHT22;9202;51.578;7.734;2022-07-29T10:47:35;24.30;99.90
18153;DHT22;9202;51.578;7.734;2022-07-29T10:49:40;24.10;99.90
18153;DHT22;9202;51.578;7.734;2022-07-29T10:54:13;23.90;99.90
18153;DHT22;9202;51.578;7.734;2022-07-29T10:56:35;23.80;99.90
18153;DHT22;9202;51.578;7.734;2022-07-29T10:58:40;23.60;99.90
18153;DHT22;9202;51.578;7.734;2022-07-29T11:00:47;23.50;99.90
18153;DHT22;9202;51.578;7.734;2022-07-29T11:02:52;23.50;99.90
18153;DHT22;9202;51.578;7.734;2022-07-29T11:05:02;23.50;99.90
18153;DHT22;9202;51.578;7.734;2022-07-29T11:07:11;23.50;99.90
18153;DHT22;9202;51.578;7.734;2022-07-29T11:09:18;23.40;99.90
18153;DHT22;9202;51.578;7.734;2022-07-29T11:11:33;23.30;99.90
18153;DHT22;9202;51.578;7.734;2022-07-29T11:13:47;23.30;99.90
18153;DHT22;9202;51.578;7.734;2022-07-29T11:15:53;23.20;99.90
18153;DHT22;9202;51.578;7.734;2022-07-29T11:18:09;23.00;99.90
18153;DHT22;9202;51.578;7.734;2022-07-29T11:20:32;23.00;99.90
18153;DHT22;9202;51.578;7.734;2022-07-29T11:22:38;22.90;99.90
18153;DHT22;9202;51.578;7.734;2022-07-29T11:24:43;22.90;99.90
18153;DHT22;9202;51.578;7.734;2022-07-29T11:27:16;22.80;99.90
18153;DHT22;9202;51.578;7.734;2022-07-29T11:29:22;22.60;99.90
18153;DHT22;9202;51.578;7.734;2022-07-29T11:34:26;22.60;99.90
18153;DHT22;9202;51.578;7.734;2022-07-29T11:36:32;22.50;99.90
18153;DHT22;9202;51.578;7.734;2022-07-29T11:38:35;22.50;99.90
18153;DHT22;9202;51.578;7.734;2022-07-29T11:40:41;22.40;99.90
18153;DHT22;9202;51.578;7.734;2022-07-29T11:45:02;22.30;99.90
18153;DHT22;9202;51.578;7.734;2022-07-29T11:49:26;22.10;99.90
18153;DHT22;9202;51.578;7.734;2022-07-29T11:54:07;21.90;99.90
18153;DHT22;9202;51.578;7.734;2022-07-29T11:58:47;21.80;99.90
18153;DHT22;9202;51.578;7.734;2022-07-29T12:03:29;21.60;99.90
18153;DHT22;9202;51.578;7.734;2022-07-29T12:08:10;21.40;99.90
18153;DHT22;9202;51.578;7.734;2022-07-29T12:10:32;21.50;99.90
18153;DHT22;9202;51.578;7.734;2022-07-29T12:12:36;21.60;99.90
18153;DHT22;9202;51.578;7.734;2022-07-29T12:14:41;21.70;99.90
18153;DHT22;9202;51.578;7.734;2022-07-29T12:19:03;21.70;99.90
18153;DHT22;9202;51.578;7.734;2022-07-29T12:23:21;21.60;99.90
18153;DHT22;9202;51.578;7.734;2022-07-29T12:27:41;21.60;99.90
18153;DHT22;9202;51.578;7.734;2022-07-29T12:29:55;21.50;99.90
18153;DHT22;9202;51.578;7.734;2022-07-29T12:34:23;21.60;99.90
18153;DHT22;9202;51.578;7.734;2022-07-29T12:36:29;21.60;99.90
18153;DHT22;9202;51.578;7.734;2022-07-29T12:38:33;21.60;99.90
18153;DHT22;9202;51.578;7.734;2022-07-29T12:40:38;21.60;99.90
18153;DHT22;9202;51.578;7.734;2022-07-29T12:44:56;21.60;99.90
18153;DHT22;9202;51.578;7.734;2022-07-29T12:49:22;21.40;99.90
18153;DHT22;9202;51.578;7.734;2022-07-29T12:51:29;21.30;99.90
18153;DHT22;9202;51.578;7.734;2022-07-29T12:55:57;21.10;99.90
18153;DHT22;9202;51.578;7.734;2022-07-29T13:02:41;21.00;99.90
18153;DHT22;9202;51.578;7.734;2022-07-29T13:04:54;21.00;99.90
18153;DHT22;9202;51.578;7.734;2022-07-29T13:09:16;21.00;99.90
18153;DHT22;9202;51.578;7.734;2022-07-29T13:13:51;21.00;99.90
18153;DHT22;9202;51.578;7.734;2022-07-29T13:18:31;21.20;99.90
18153;DHT22;9202;51.578;7.734;2022-07-29T13:20:35;21.20;99.90
18153;DHT22;9202;51.578;7.734;2022-07-29T13:22:39;21.30;99.90
18153;DHT22;9202;51.578;7.734;2022-07-29T13:24:51;21.30;99.90
18153;DHT22;9202;51.578;7.734;2022-07-29T13:27:09;21.30;99.90
18153;DHT22;9202;51.578;7.734;2022-07-29T13:31:32;21.30;99.90
18153;DHT22;9202;51.578;7.734;2022-07-29T13:38:08;21.40;99.90
18153;DHT22;9202;51.578;7.734;2022-07-29T13:40:12;21.40;99.90
18153;DHT22;9202;51.578;7.734;2022-07-29T13:44:31;21.50;99.90
18153;DHT22;9202;51.578;7.734;2022-07-29T13:46:35;21.40;99.90
18153;DHT22;9202;51.578;7.734;2022-07-29T13:48:40;21.50;99.90
18153;DHT22;9202;51.578;7.734;2022-07-29T13:53:00;21.30;99.90
18153;DHT22;9202;51.578;7.734;2022-07-29T13:57:49;21.30;99.90
18153;DHT22;9202;51.578;7.734;2022-07-29T14:02:10;21.20;99.90
18153;DHT22;9202;51.578;7.734;2022-07-29T14:04:16;21.20;99.90
18153;DHT22;9202;51.578;7.734;2022-07-29T14:06:20;21.10;99.90
18153;DHT22;9202;51.578;7.734;2022-07-29T14:08:28;20.80;99.90
18153;DHT22;9202;51.578;7.734;2022-07-29T14:12:49;20.40;99.90
18153;DHT22;9202;51.578;7.734;2022-07-29T14:14:52;20.20;99.90
18153;DHT22;9202;51.578;7.734;2022-07-29T14:19:13;20.20;99.90
18153;DHT22;9202;51.578;7.734;2022-07-29T14:21:16;20.20;99.90
18153;DHT22;9202;51.578;7.734;2022-07-29T14:25:37;20.30;99.90
18153;DHT22;9202;51.578;7.734;2022-07-29T14:27:42;20.40;99.90
18153;DHT22;9202;51.578;7.734;2022-07-29T14:32:05;20.40;99.90
18153;DHT22;9202;51.578;7.734;2022-07-29T14:34:09;20.50;99.90
18153;DHT22;9202;51.578;7.734;2022-07-29T14:38:29;20.60;99.90
18153;DHT22;9202;51.578;7.734;2022-07-29T14:42:49;20.70;99.90
18153;DHT22;9202;51.578;7.734;2022-07-29T14:44:53;20.80;99.90
18153;DHT22;9202;51.578;7.734;2022-07-29T14:46:57;20.90;99.90
18153;DHT22;9202;51.578;7.734;2022-07-29T14:51:19;21.20;99.90
18153;DHT22;9202;51.578;7.734;2022-07-29T14:55:40;21.30;99.90
18153;DHT22;9202;51.578;7.734;2022-07-29T14:57:44;21.20;99.90
18153;DHT22;9202;51.578;7.734;2022-07-29T14:59:48;21.30;99.90
18153;DHT22;9202;51.578;7.734;2022-07-29T15:01:52;21.30;99.90
18153;DHT22;9202;51.578;7.734;2022-07-29T15:03:55;21.40;99.90
18153;DHT22;9202;51.578;7.734;2022-07-29T15:06:01;21.60;99.90
18153;DHT22;9202;51.578;7.734;2022-07-29T15:08:05;21.70;99.90
18153;DHT22;9202;51.578;7.734;2022-07-29T15:12:26;22.00;99.90
18153;DHT22;9202;51.578;7.734;2022-07-29T15:16:48;22.10;99.90